Time;durP1;ratioP1;P1;durP2;ratioP2;P2;SDS_P1;SDS_P2;PMS_P1;PMS_P2;Temp;Humidity;BMP_temperature;BMP_pressure;BME280_temperature;BME280_humidity;BME280_pressure;Samples;Min_cycle;Max_cycle;Signal;HPM_P1;HPM_P2
2022/05/12 00:02:45;;;;;;;17.80;4.07;;;;;;;6.87;79.08;100701.16;10378752;28;20489;-76
2022/05/12 00:07:47;;;;;;;6.07;3.28;;;;;;;5.17;78.58;100417.91;10378854;28;20084;-76
2022/05/12 00:12:49;;;;;;;11.82;3.80;;;;;;;6.44;79.12;100630.19;10378856;28;20038;-76
2022/05/12 00:17:50;;;;;;;7.45;3.22;;;;;;;5.98;79.05;100560.31;10378222;28;20124;-76
2022/05/12 00:22:51;;;;;;;12.00;3.47;;;;;;;6.86;78.83;100705.59;10376874;28;20171;-77
2022/05/12 00:27:52;;;;;;;7.00;3.47;;;;;;;6.81;79.40;100702.50;10395527;28;20080;-76
2022/05/12 00:32:53;;;;;;;6.32;3.50;;;;;;;6.58;79.25;100661.44;10402267;28;20449;-76
2022/05/12 00:37:54;;;;;;;9.65;3.20;;;;;;;6.29;79.12;100632.34;10417923;28;20037;-76
2022/05/12 00:43:02;;;;;;;13.50;3.67;;;;;;;6.64;79.63;100708.44;10418318;28;20048;-76
2022/05/12 00:48:04;;;;;;;34.53;6.30;;;;;;;6.31;80.20;100643.56;10384221;28;20046;-76
2022/05/12 00:53:08;;;;;;;8.70;3.35;;;;;;;6.39;80.51;100664.88;10401089;28;20089;-76
2022/05/12 00:58:13;;;;;;;6.13;3.13;;;;;;;5.61;79.90;100532.63;10376915;28;20064;-76
2022/05/12 01:03:19;;;;;;;16.35;3.90;;;;;;;6.36;80.21;100687.06;10377053;28;20456;-76
2022/05/12 01:08:21;;;;;;;8.65;2.53;;;;;;;5.64;79.60;100564.00;10376941;28;20050;-76
2022/05/12 01:13:22;;;;;;;9.88;3.33;;;;;;;6.47;80.42;100711.72;10375611;28;20049;-76
2022/05/12 01:18:27;;;;;;;8.48;2.90;;;;;;;6.46;80.85;100707.38;10375750;28;20052;-77
2022/05/12 01:23:29;;;;;;;;;;;;;;;6.57;79.86;100708.13;10376442;28;20092;-76
2022/05/12 01:28:30;;;;;;;8.65;3.10;;;;;;;6.06;79.28;100647.50;10376010;28;20011;-76
2022/05/12 01:33:32;;;;;;;4.60;2.60;;;;;;;4.95;79.46;100468.91;10388858;28;20067;-76
2022/05/12 01:38:33;;;;;;;5.30;2.33;;;;;;;5.91;80.33;100637.25;10375690;28;20049;-76
2022/05/12 01:43:34;;;;;;;10.00;3.22;;;;;;;4.89;80.13;100465.00;10375053;28;20400;-77
2022/05/12 01:48:35;;;;;;;13.65;3.30;;;;;;;5.88;79.99;100639.34;10375138;28;20065;-76
2022/05/12 01:53:37;;;;;;;6.60;2.30;;;;;;;5.43;79.56;100560.56;10374214;28;20472;-76
2022/05/12 01:58:38;;;;;;;11.95;3.17;;;;;;;5.45;80.04;100570.00;10374961;28;20049;-76
2022/05/12 02:03:39;;;;;;;14.75;3.30;;;;;;;5.19;79.56;100545.00;10373633;28;20049;-77
2022/05/12 02:08:39;;;;;;;5.18;2.38;;;;;;;6.15;80.01;100683.66;10404215;28;20052;-75
2022/05/12 02:13:40;;;;;;;10.50;2.95;;;;;;;6.56;79.33;100716.19;10399307;28;20123;-74
2022/05/12 02:18:43;;;;;;;6.03;2.92;;;;;;;6.98;79.43;100756.50;10381495;28;20038;-76
2022/05/12 02:23:44;;;;;;;5.85;2.75;;;;;;;7.24;79.32;100769.22;10372714;28;20127;-75
2022/05/12 02:28:45;;;;;;;7.15;2.45;;;;;;;7.60;78.36;100762.47;10374426;28;20513;-75
2022/05/12 02:33:45;;;;;;;6.78;2.53;;;;;;;7.81;77.45;100724.44;10372259;28;20041;-76
2022/05/12 02:38:46;;;;;;;4.30;2.30;;;;;;;8.28;75.11;100690.09;10372487;28;20088;-76
2022/05/12 02:43:47;;;;;;;5.32;2.25;;;;;;;8.92;74.31;100718.41;10372527;28;20042;-75
2022/05/12 02:48:50;;;;;;;7.75;2.20;;;;;;;9.54;73.76;100777.75;10385581;28;20123;-78
2022/05/12 02:53:51;;;;;;;4.00;1.90;;;;;;;9.09;73.42;100618.72;10413305;28;20141;-77
2022/05/12 02:58:53;;;;;;;3.30;2.05;;;;;;;9.27;71.36;100529.44;10412663;28;20053;-77
2022/05/12 03:03:54;;;;;;;4.78;2.05;;;;;;;11.07;68.12;100628.44;10412592;28;20064;-77
2022/05/12 03:08:55;;;;;;;4.63;1.92;;;;;;;12.71;64.83;100740.06;10406525;28;20088;-78
2022/05/12 03:13:56;;;;;;;5.45;2.35;;;;;;;14.11;61.47;100802.31;10379512;28;20080;-79
2022/05/12 03:18:57;;;;;;;4.50;1.77;;;;;;;14.37;58.85;100684.34;10372411;28;20080;-78
2022/05/12 03:23:58;;;;;;;8.43;2.40;;;;;;;15.71;56.69;100805.41;10373022;28;20092;-79
2022/05/12 03:28:59;;;;;;;3.80;2.00;;;;;;;15.59;55.25;100699.78;10407832;28;20049;-78
2022/05/12 03:34:00;;;;;;;5.32;2.10;;;;;;;16.71;54.03;100815.09;10411658;28;20037;-78
2022/05/12 03:39:03;;;;;;;3.95;1.90;;;;;;;16.34;51.54;100629.44;10408840;28;20501;-78
2022/05/12 03:49:23;;;;;;;6.03;2.17;;;;;;;17.09;49.70;100675.13;10408814;28;20033;-79
2022/05/12 03:54:23;;;;;;;5.55;1.90;;;;;;;17.24;48.92;100632.00;10407607;28;20049;-79
2022/05/12 03:59:24;;;;;;;5.95;2.40;;;;;;;15.85;49.31;100485.69;10410896;28;20108;-78
2022/05/12 04:04:25;;;;;;;5.65;2.47;;;;;;;16.61;49.47;100667.09;10418054;28;20063;-78
2022/05/12 04:09:27;;;;;;;5.90;2.25;;;;;;;17.81;48.37;100804.44;10417569;28;20037;-79
2022/05/12 04:14:28;;;;;;;4.25;1.73;;;;;;;18.03;48.72;100779.03;10415775;28;20045;-80
2022/05/12 04:19:28;;;;;;;35.10;3.75;;;;;;;16.96;47.83;100559.69;10414859;28;20038;-80
2022/05/12 04:24:30;;;;;;;4.53;1.98;;;;;;;18.60;47.59;100790.16;10414060;28;20067;-77
2022/05/12 04:29:30;;;;;;;3.13;1.70;;;;;;;18.31;47.44;100726.88;10417876;28;20393;-77
2022/05/12 04:39:50;;;;;;;6.78;2.05;;;;;;;18.40;47.30;100819.78;10414936;28;20038;-80
2022/05/12 04:44:51;;;;;;;7.30;1.95;;;;;;;17.58;47.72;100698.13;10416924;28;20048;-78
2022/05/12 04:49:55;;;;;;;7.63;2.20;;;;;;;18.01;47.80;100799.94;10418245;28;20518;-82
2022/05/12 04:54:56;;;;;;;4.90;1.85;;;;;;;17.66;48.54;100775.03;10418922;28;20489;-81
2022/05/12 04:59:56;;;;;;;6.78;2.30;;;;;;;17.65;48.39;100739.28;10403611;28;20049;-82
2022/05/12 05:04:57;;;;;;;7.10;2.13;;;;;;;17.34;48.20;100783.63;10456949;28;20059;-75
2022/05/12 05:09:58;;;;;;;3.80;2.00;;;;;;;16.28;49.31;100709.81;10455820;28;20051;-75
2022/05/12 05:14:59;;;;;;;3.70;1.95;;;;;;;16.74;49.78;100829.97;10457386;28;20079;-79
2022/05/12 05:20:00;;;;;;;4.13;2.05;;;;;;;16.73;49.46;100817.59;10455508;28;20069;-82
2022/05/12 05:25:01;;;;;;;6.80;2.33;;;;;;;16.86;49.19;100833.78;10427200;28;20445;-83
2022/05/12 05:30:04;;;;;;;6.00;2.00;;;;;;;15.82;48.77;100644.13;10416310;28;20048;-82
2022/05/12 05:35:07;;;;;;;10.15;1.92;;;;;;;16.05;49.34;100662.66;10409601;28;20072;-80
2022/05/12 05:40:09;;;;;;;3.28;1.80;;;;;;;17.10;48.44;100811.81;10415952;28;20073;-78
2022/05/12 05:45:12;;;;;;;5.18;1.90;;;;;;;17.49;47.86;100822.91;10417304;28;20047;-78
2022/05/12 05:50:16;;;;;;;7.63;2.38;;;;;;;17.94;48.35;100828.63;10428533;28;20103;-92
2022/05/12 05:55:16;;;;;;;;;;;;;;;18.25;47.52;100828.88;10430376;28;20064;-81
2022/05/12 06:00:19;;;;;;;5.97;2.10;;;;;;;17.30;47.06;100720.63;10426901;28;19924;-85
2022/05/12 06:05:21;;;;;;;5.80;2.00;;;;;;;17.20;46.60;100682.59;10431682;28;20088;-85
2022/05/12 06:10:22;;;;;;;6.43;1.92;;;;;;;17.29;46.03;100686.75;10414029;28;20037;-85
2022/05/12 06:15:25;;;;;;;3.92;2.00;;;;;;;18.20;45.00;100817.91;10432071;28;20045;-84
2022/05/12 06:20:26;;;;;;;3.22;1.75;;;;;;;18.36;44.89;100816.66;10453252;28;20057;-84
2022/05/12 06:25:27;;;;;;;3.40;1.92;;;;;;;17.26;43.82;100640.66;10428834;28;20053;-86
2022/05/12 06:30:29;;;;;;;3.45;1.65;;;;;;;18.00;43.62;100726.50;10446008;28;20045;-76
2022/05/12 06:35:30;;;;;;;4.40;2.00;;;;;;;17.42;43.33;100652.88;10449727;28;20135;-87
2022/05/12 06:40:30;;;;;;;3.22;1.75;;;;;;;18.52;43.26;100831.56;10453509;28;20510;-90
2022/05/12 06:45:31;;;;;;;3.97;1.73;;;;;;;18.80;43.07;100807.13;10444637;28;20049;-80
2022/05/12 06:50:32;;;;;;;4.28;1.88;;;;;;;18.83;42.67;100827.41;10424589;28;20473;-85
2022/05/12 06:55:33;;;;;;;3.42;1.58;;;;;;;17.68;42.81;100641.31;10415594;28;20065;-77
2022/05/12 07:00:34;;;;;;;11.15;3.25;;;;;;;18.13;42.63;100658.47;10442121;28;20098;-78
2022/05/12 07:05:35;;;;;;;4.07;2.05;;;;;;;19.20;41.85;100806.97;10454871;28;20465;-88
2022/05/12 07:10:36;;;;;;;7.40;2.10;;;;;;;19.30;41.44;100806.53;10453598;28;20033;-81
2022/05/12 07:15:38;;;;;;;7.90;3.10;;;;;;;18.89;40.97;100714.31;10454361;28;20554;-81
2022/05/12 07:31:17;;;;;;;5.97;2.42;;;;;;;19.56;40.44;100720.19;10433475;28;20048;-77
2022/05/12 07:36:21;;;;;;;3.75;1.92;;;;;;;19.90;39.98;100739.66;10420296;28;20052;-80
2022/05/12 07:41:23;;;;;;;5.25;1.80;;;;;;;19.64;40.32;100664.34;10417850;28;20033;-82
2022/05/12 07:46:27;;;;;;;6.15;1.88;;;;;;;19.61;37.49;100674.50;10419657;28;20033;-87
2022/05/12 07:51:28;;;;;;;10.50;2.00;;;;;;;20.08;36.87;100705.69;10420053;28;20041;-78
2022/05/12 07:56:29;;;;;;;2.85;1.70;;;;;;;19.68;36.24;100625.97;10420355;28;20054;-82
2022/05/12 08:01:30;;;;;;;4.60;1.80;;;;;;;19.58;36.15;100615.66;10419718;28;20073;-82
2022/05/12 08:06:32;;;;;;;5.50;2.17;;;;;;;17.77;36.42;100328.41;10419797;28;20497;-87
2022/05/12 08:11:32;;;;;;;4.43;1.80;;;;;;;20.24;35.71;100664.66;10419796;28;20073;-81
2022/05/12 08:16:34;;;;;;;6.72;2.08;;;;;;;19.77;36.13;100559.97;10419492;28;20069;-84
2022/05/12 08:21:35;;;;;;;4.13;2.10;;;;;;;21.23;35.17;100778.75;10436793;28;20041;-69
2022/05/12 08:26:36;;;;;;;12.25;2.25;;;;;;;20.39;34.33;100632.72;10424892;28;20410;-70
2022/05/12 08:31:37;;;;;;;3.03;1.90;;;;;;;20.95;33.90;100798.22;10445608;28;20084;-70
2022/05/12 08:36:38;;;;;;;5.60;2.10;;;;;;;21.15;33.05;100771.81;10459953;28;20503;-69
2022/05/12 08:41:57;;;;;;;5.85;2.17;;;;;;;21.41;32.63;100764.41;10421688;28;20049;-70
2022/05/12 08:47:02;;;;;;;5.28;1.67;;;;;;;21.32;32.17;100730.63;10416920;28;20413;-71
2022/05/12 08:52:14;;;;;;;7.07;2.83;;;;;;;21.52;31.86;100765.53;10417663;28;20045;-72
2022/05/12 08:57:33;;;;;;;6.90;2.20;;;;;;;21.23;31.19;100767.13;10416942;28;20062;-72
2022/05/12 09:02:52;;;;;;;4.85;2.38;;;;;;;21.37;31.72;100766.75;10416887;28;20045;-73
2022/05/12 09:08:18;;;;;;;5.05;1.98;;;;;;;21.37;30.70;100733.50;10417133;28;20060;-71
2022/05/12 09:13:30;;;;;;;6.13;2.20;;;;;;;21.55;30.64;100727.22;10417219;28;20099;-69
2022/05/12 09:18:34;;;;;;;5.00;2.08;;;;;;;20.67;31.35;100537.72;10416377;28;20064;-70
2022/05/12 09:23:35;;;;;;;4.53;2.10;;;;;;;20.83;31.26;100509.25;10416719;28;20073;-70
2022/05/12 09:28:40;;;;;;;6.28;2.30;;;;;;;22.36;30.12;100757.34;10417294;28;20037;-69
2022/05/12 09:33:42;;;;;;;4.68;2.10;;;;;;;21.89;30.63;100685.88;10416295;28;20048;-69
2022/05/12 09:38:46;;;;;;;4.18;2.30;;;;;;;22.20;30.63;100738.03;10416127;28;20064;-71
2022/05/12 09:43:50;;;;;;;4.70;1.98;;;;;;;22.25;30.98;100770.63;10431045;28;20037;-72
2022/05/12 09:48:51;;;;;;;6.97;2.25;;;;;;;22.30;31.22;100746.38;10415535;28;20049;-71
2022/05/12 09:54:12;;;;;;;6.65;2.20;;;;;;;22.03;30.23;100685.66;10414854;28;20057;-68
2022/05/12 09:59:13;;;;;;;4.22;2.22;;;;;;;22.38;30.31;100744.41;10436928;28;20044;-72
2022/05/12 10:09:54;;;;;;;6.97;2.03;;;;;;;22.67;31.03;100735.28;10434794;28;20040;-72
2022/05/12 10:15:23;;;;;;;3.17;2.10;;;;;;;23.00;30.27;100740.06;10415714;28;20057;-70
2022/05/12 10:20:27;;;;;;;3.38;2.00;;;;;;;22.88;30.28;100722.16;10413138;28;20053;-70
2022/05/12 10:25:55;;;;;;;;;;;;;;;23.30;30.65;100730.03;10434656;28;20084;-70
2022/05/12 10:31:06;;;;;;;4.47;1.90;;;;;;;23.10;30.75;100728.59;10413820;28;19920;-69
2022/05/12 10:36:39;;;;;;;4.75;1.92;;;;;;;23.10;30.58;100725.06;10413793;28;20045;-71
2022/05/12 10:42:20;;;;;;;3.25;1.98;;;;;;;23.01;30.53;100732.75;10439747;28;20183;-69
2022/05/12 10:47:27;;;;;;;3.13;1.85;;;;;;;22.99;30.14;100726.75;10430332;28;20041;-68
2022/05/12 10:52:30;;;;;;;4.20;2.55;;;;;;;22.93;29.76;100716.84;10421705;28;20110;-69
2022/05/12 10:57:49;;;;;;;9.68;2.35;;;;;;;22.22;28.51;100602.50;10414208;28;20041;-70
2022/05/12 11:02:54;;;;;;;6.78;2.05;;;;;;;23.08;29.04;100724.50;10412711;28;20049;-70
2022/05/12 11:08:21;;;;;;;5.25;2.28;;;;;;;23.07;29.38;100679.50;10412834;28;20041;-70
2022/05/12 11:13:41;;;;;;;4.95;2.05;;;;;;;23.37;29.15;100706.34;10430022;28;20401;-70
2022/05/12 11:18:56;;;;;;;12.43;2.03;;;;;;;23.21;28.46;100697.09;10454289;28;20045;-71
2022/05/12 11:24:18;;;;;;;4.00;2.05;;;;;;;23.32;28.42;100706.22;10431189;28;20080;-69
2022/05/12 11:29:52;;;;;;;3.97;2.10;;;;;;;22.07;28.69;100595.66;10412870;28;20049;-69
2022/05/12 11:34:58;;;;;;;5.13;2.20;;;;;;;21.77;29.02;100608.50;10436477;28;20048;-71
2022/05/12 11:40:05;;;;;;;19.60;3.13;;;;;;;22.33;29.45;100647.66;10435722;28;20037;-70
2022/05/12 11:45:08;;;;;;;7.00;2.13;;;;;;;22.92;29.32;100694.34;10453064;28;20044;-71
2022/05/12 11:51:04;;;;;;;3.92;2.00;;;;;;;23.09;28.77;100690.91;10448340;28;20048;-69
2022/05/12 11:56:10;;;;;;;3.35;1.73;;;;;;;22.11;29.05;100585.22;10446749;28;20401;-72
2022/05/12 12:01:32;;;;;;;4.72;2.03;;;;;;;23.28;29.55;100670.66;10427898;28;20603;-72
2022/05/12 12:06:41;;;;;;;3.30;1.67;;;;;;;23.51;28.71;100677.81;10435082;28;20044;-71
2022/05/12 12:11:43;;;;;;;3.88;1.92;;;;;;;22.46;28.63;100571.59;10430286;28;20041;-69
2022/05/12 12:17:34;;;;;;;5.20;1.90;;;;;;;23.15;29.53;100674.47;10411307;28;20048;-69
2022/05/12 12:22:42;;;;;;;5.75;2.28;;;;;;;22.95;29.59;100671.41;10417039;28;20084;-73
2022/05/12 12:27:58;;;;;;;6.75;2.30;;;;;;;22.32;29.29;100684.72;10418888;28;20492;-71
2022/05/12 12:33:10;;;;;;;3.75;1.90;;;;;;;22.24;29.31;100636.38;10451821;28;20045;-71
2022/05/12 12:38:39;;;;;;;6.68;2.03;;;;;;;22.92;29.39;100682.69;10444431;28;20048;-70
2022/05/12 12:43:46;;;;;;;4.60;2.05;;;;;;;23.07;28.55;100676.78;10450972;28;20037;-69
2022/05/12 12:48:57;;;;;;;4.85;2.00;;;;;;;23.23;28.01;100667.84;10446268;28;20072;-69
2022/05/12 12:59:24;;;;;;;3.45;2.00;;;;;;;22.93;28.53;100668.09;10423699;28;20115;-70
2022/05/12 13:04:32;;;;;;;7.03;2.03;;;;;;;22.61;28.91;100657.69;10417504;28;20040;-71
2022/05/12 13:09:39;;;;;;;3.92;1.73;;;;;;;22.10;28.39;100551.06;10418059;28;20052;-71
2022/05/12 13:14:42;;;;;;;6.93;2.30;;;;;;;22.14;29.07;100654.22;10417136;28;20144;-70
2022/05/12 13:19:44;;;;;;;4.95;2.13;;;;;;;21.57;29.54;100650.25;10417499;28;20099;-71
2022/05/12 13:24:45;;;;;;;5.53;2.00;;;;;;;21.34;30.74;100678.00;10416108;28;20033;-70
2022/05/12 13:29:46;;;;;;;3.25;1.77;;;;;;;21.01;31.36;100696.56;10416802;28;20029;-71
2022/05/12 13:34:52;;;;;;;7.75;2.40;;;;;;;21.06;31.52;100664.28;10415315;28;20097;-71
2022/05/12 13:39:55;;;;;;;4.53;2.15;;;;;;;21.55;31.38;100692.09;10446864;28;20057;-71
2022/05/12 13:45:02;;;;;;;3.63;2.28;;;;;;;21.17;31.96;100682.41;10416230;28;20041;-71
2022/05/12 13:50:09;;;;;;;13.52;2.30;;;;;;;20.21;32.83;100621.94;10427098;28;20062;-70
2022/05/12 13:55:33;;;;;;;7.88;2.65;;;;;;;20.48;33.32;100698.00;10426431;28;20054;-70
2022/05/12 14:00:39;;;;;;;12.18;2.15;;;;;;;20.12;33.69;100686.13;10414751;28;20571;-70
2022/05/12 14:05:40;;;;;;;11.95;2.20;;;;;;;19.50;34.41;100582.78;10432997;28;20132;-70
2022/05/12 14:10:46;;;;;;;3.97;2.28;;;;;;;20.79;32.57;100698.91;10430109;28;20511;-68
2022/05/12 14:21:16;;;;;;;4.40;1.83;;;;;;;21.34;31.97;100720.44;10434211;28;20044;-70
2022/05/12 14:26:17;;;;;;;4.22;2.28;;;;;;;21.17;31.79;100688.63;10414533;28;20045;-68
2022/05/12 14:31:23;;;;;;;5.50;2.00;;;;;;;21.34;32.25;100701.50;10413588;28;20033;-69
2022/05/12 14:36:24;;;;;;;7.20;2.28;;;;;;;21.29;32.31;100699.50;10414623;28;20056;-70
2022/05/12 14:41:26;;;;;;;7.50;2.38;;;;;;;21.23;32.62;100691.47;10413126;28;20030;-71
2022/05/12 14:46:39;;;;;;;5.43;1.88;;;;;;;21.32;31.95;100719.81;10413442;28;20049;-70
2022/05/12 14:51:40;;;;;;;5.43;2.55;;;;;;;21.23;32.64;100710.41;10413847;28;20564;-71
2022/05/12 14:56:41;;;;;;;6.40;1.92;;;;;;;21.20;32.81;100730.59;10413756;28;20516;-70
2022/05/12 15:01:42;;;;;;;4.70;2.03;;;;;;;20.28;33.21;100603.78;10436947;28;20045;-70
2022/05/12 15:06:45;;;;;;;3.60;2.10;;;;;;;20.79;33.84;100705.16;10450696;28;20049;-70
2022/05/12 15:11:45;;;;;;;6.47;2.38;;;;;;;20.18;34.75;100622.38;10454002;28;20045;-69
2022/05/12 15:16:46;;;;;;;4.90;2.10;;;;;;;20.01;34.90;100631.06;10453603;28;20045;-70
2022/05/12 15:21:47;;;;;;;7.63;2.45;;;;;;;19.61;35.33;100607.16;10453646;28;20079;-70
2022/05/12 15:26:48;;;;;;;13.48;2.40;;;;;;;19.49;35.75;100638.56;10453527;28;20041;-69
2022/05/12 15:31:49;;;;;;;7.47;2.50;;;;;;;19.80;36.44;100702.41;10454264;28;20037;-69
2022/05/12 15:36:52;;;;;;;33.10;3.38;;;;;;;18.99;37.24;100606.16;10454117;28;20041;-69
2022/05/12 15:41:53;;;;;;;7.22;2.35;;;;;;;19.40;38.11;100720.69;10453769;28;20048;-69
2022/05/12 15:46:59;;;;;;;6.70;2.72;;;;;;;19.34;39.59;100772.75;10452978;28;20049;-69
2022/05/12 15:52:03;;;;;;;8.23;2.47;;;;;;;18.55;40.05;100685.88;10453094;28;20491;-69
2022/05/12 15:57:04;;;;;;;5.03;2.33;;;;;;;18.38;41.44;100715.06;10439376;28;20065;-69
2022/05/12 16:02:10;;;;;;;7.70;2.53;;;;;;;18.41;42.54;100768.47;10421041;28;20481;-69
2022/05/12 16:07:11;;;;;;;70.40;7.25;;;;;;;17.93;43.27;100755.25;10421576;28;20049;-83
2022/05/12 16:17:22;;;;;;;13.98;3.25;;;;;;;15.96;45.57;100562.00;10459559;28;20389;-83
2022/05/12 16:22:23;;;;;;;12.25;3.55;;;;;;;15.29;46.23;100485.78;10457202;28;20028;-83
2022/05/12 16:27:24;;;;;;;24.67;3.88;;;;;;;16.52;47.86;100754.94;10459570;28;20051;-83
2022/05/12 16:32:27;;;;;;;17.55;4.05;;;;;;;15.89;49.14;100735.28;10460179;28;20475;-83
2022/05/12 16:37:27;;;;;;;9.63;3.28;;;;;;;13.23;50.66;100376.72;10454334;28;20152;-83
2022/05/12 16:42:28;;;;;;;7.60;3.00;;;;;;;15.37;51.22;100766.66;10455938;28;20136;-83
2022/05/12 16:47:29;;;;;;;14.20;3.15;;;;;;;14.43;52.70;100691.63;10456395;28;20047;-82
2022/05/12 16:52:30;;;;;;;9.55;3.22;;;;;;;14.90;53.09;100784.03;10457114;28;20555;-78
2022/05/12 16:57:34;;;;;;;18.52;3.58;;;;;;;13.37;55.08;100585.84;10453795;28;20047;-78
2022/05/12 17:02:35;;;;;;;11.73;3.05;;;;;;;14.54;54.09;100824.03;10455140;28;20033;-78
2022/05/12 17:07:36;;;;;;;12.88;3.17;;;;;;;13.71;55.01;100716.19;10442467;28;20045;-76
2022/05/12 17:12:37;;;;;;;11.15;3.15;;;;;;;12.97;55.17;100639.31;10449302;28;20040;-76
2022/05/12 17:17:37;;;;;;;7.25;3.20;;;;;;;12.78;55.64;100656.59;10426669;28;20037;-76
2022/05/12 17:22:38;;;;;;;14.50;3.58;;;;;;;13.30;56.93;100777.84;10417207;28;20401;-77
2022/05/12 17:27:39;;;;;;;7.57;3.28;;;;;;;12.17;58.00;100628.84;10453838;28;20076;-76
2022/05/12 17:32:40;;;;;;;8.70;3.35;;;;;;;12.47;58.44;100707.16;10458002;28;20516;-76
2022/05/12 17:37:41;;;;;;;9.93;4.07;;;;;;;12.66;58.43;100787.75;10457320;28;20043;-76
2022/05/12 17:42:43;;;;;;;9.35;4.78;;;;;;;12.72;59.22;100816.41;10458106;28;20033;-76
2022/05/12 17:47:44;;;;;;;10.27;4.50;;;;;;;12.89;59.91;100866.03;10457202;28;20047;-76
2022/05/12 17:52:45;;;;;;;10.38;4.20;;;;;;;10.06;59.90;100430.16;10456621;28;20083;-76
2022/05/12 17:57:46;;;;;;;14.07;3.35;;;;;;;12.50;60.95;100868.56;10457209;28;20059;-76
2022/05/12 18:02:47;;;;;;;8.52;3.05;;;;;;;12.37;60.61;100836.25;10455740;28;20570;-76
2022/05/12 18:07:48;;;;;;;7.80;3.20;;;;;;;11.44;61.12;100712.25;10456424;28;20059;-76
2022/05/12 18:12:49;;;;;;;11.85;3.40;;;;;;;11.70;61.92;100769.81;10453636;28;20048;-77
2022/05/12 18:17:49;;;;;;;10.32;3.08;;;;;;;11.10;61.93;100688.44;10445697;28;20045;-77
2022/05/12 18:22:50;;;;;;;13.93;3.40;;;;;;;11.95;63.01;100862.03;10455707;28;20500;-77
2022/05/12 18:27:51;;;;;;;14.75;3.92;;;;;;;11.70;63.24;100847.84;10455275;28;20087;-79
2022/05/12 18:32:52;;;;;;;15.65;7.10;;;;;;;11.69;64.20;100882.56;10454870;28;20040;-78
2022/05/12 18:37:53;;;;;;;15.77;8.40;;;;;;;11.49;64.28;100869.56;10455203;28;20048;-78
2022/05/12 18:42:56;;;;;;;30.77;8.35;;;;;;;10.64;65.37;100741.06;10456153;28;20408;-76
2022/05/12 18:47:57;;;;;;;24.08;9.95;;;;;;;8.49;65.74;100425.97;10455001;28;20104;-77
2022/05/12 18:52:58;;;;;;;19.23;10.50;;;;;;;10.78;65.33;100792.81;10454096;28;20055;-78
2022/05/12 18:57:59;;;;;;;15.82;10.63;;;;;;;10.45;65.51;100745.63;10454249;28;20468;-76
2022/05/12 19:03:01;;;;;;;20.48;11.80;;;;;;;10.27;65.97;100752.81;10453952;28;20083;-77
2022/05/12 19:08:02;;;;;;;18.75;12.57;;;;;;;10.99;66.58;100885.44;10453806;28;20048;-77
2022/05/12 19:13:04;;;;;;;24.17;10.85;;;;;;;10.98;67.37;100884.63;10455136;28;20045;-76
2022/05/12 19:18:11;;;;;;;15.32;8.82;;;;;;;9.72;68.11;100684.03;10445084;28;20040;-77
2022/05/12 19:23:14;;;;;;;15.98;7.88;;;;;;;10.81;67.57;100889.00;10451220;28;20106;-77
2022/05/12 19:28:16;;;;;;;12.40;6.60;;;;;;;9.74;67.62;100732.47;10457952;28;20048;-75
2022/05/12 19:33:17;;;;;;;11.02;6.63;;;;;;;10.54;68.53;100870.53;10444085;28;20092;-75
2022/05/12 19:38:20;;;;;;;8.90;5.30;;;;;;;9.91;67.96;100791.84;10447333;28;20053;-77
2022/05/12 19:43:21;;;;;;;10.48;5.05;;;;;;;10.44;68.18;100900.69;10462048;28;20048;-76
2022/05/12 19:48:24;;;;;;;10.32;6.15;;;;;;;9.05;69.36;100702.16;10447145;28;20080;-75
2022/05/12 19:53:27;;;;;;;8.88;4.68;;;;;;;9.93;68.78;100854.41;10420189;28;20070;-76
2022/05/12 19:58:28;;;;;;;8.32;4.55;;;;;;;8.80;69.01;100690.47;10420707;28;20049;-76
2022/05/12 20:03:28;;;;;;;12.13;5.05;;;;;;;9.05;68.91;100745.38;10419903;28;20413;-79
2022/05/12 20:08:29;;;;;;;8.90;4.75;;;;;;;8.22;69.55;100620.88;10437523;28;20049;-78
2022/05/12 20:13:31;;;;;;;18.58;5.72;;;;;;;9.86;69.51;100897.59;10460730;28;20064;-76
2022/05/12 20:18:33;;;;;;;9.85;4.68;;;;;;;8.28;69.27;100659.16;10460457;28;20037;-77
2022/05/12 20:23:34;;;;;;;15.65;5.82;;;;;;;9.75;69.97;100926.03;10460336;28;20033;-77
2022/05/12 20:28:36;;;;;;;11.15;5.63;;;;;;;8.29;69.96;100694.44;10460715;28;20040;-78
2022/05/12 20:33:36;;;;;;;14.02;5.30;;;;;;;8.30;70.44;100702.22;10459504;28;20045;-77
2022/05/12 20:38:37;;;;;;;14.38;5.55;;;;;;;7.15;70.60;100534.88;10458992;28;20045;-77
2022/05/12 20:43:38;;;;;;;7.28;4.70;;;;;;;9.03;70.58;100869.25;10459626;28;20037;-78
2022/05/12 20:48:45;;;;;;;11.60;5.43;;;;;;;9.22;71.58;100917.88;10459794;28;20407;-77
2022/05/12 20:53:47;;;;;;;17.65;5.40;;;;;;;9.12;70.84;100918.75;10460204;28;20103;-77
2022/05/12 20:58:49;;;;;;;13.65;5.07;;;;;;;8.12;70.67;100755.03;10459159;28;20398;-78
2022/05/12 21:03:54;;;;;;;9.73;5.30;;;;;;;8.03;72.78;100741.84;10457211;28;20416;-77
2022/05/12 21:08:55;;;;;;;11.15;6.50;;;;;;;6.77;71.81;100550.63;10458799;28;20041;-78
2022/05/12 21:13:55;;;;;;;11.90;6.68;;;;;;;7.78;72.28;100709.72;10458998;28;20040;-77
2022/05/12 21:18:56;;;;;;;14.80;6.03;;;;;;;9.06;72.62;100927.28;10458290;28;20036;-77
2022/05/12 21:23:57;;;;;;;16.13;6.55;;;;;;;8.10;72.30;100780.81;10457495;28;20554;-77
2022/05/12 21:28:58;;;;;;;13.10;6.55;;;;;;;8.44;72.31;100841.25;10458036;28;20060;-78
2022/05/12 21:33:59;;;;;;;12.68;6.53;;;;;;;7.70;72.31;100725.44;10457862;28;20043;-79
2022/05/12 21:39:00;;;;;;;12.43;6.22;;;;;;;7.43;72.65;100739.34;10457132;28;20043;-77
2022/05/12 21:44:01;;;;;;;12.18;6.38;;;;;;;7.74;73.14;100774.41;10455550;28;20036;-77
2022/05/12 21:49:03;;;;;;;12.32;6.07;;;;;;;8.10;72.77;100844.31;10457806;28;20116;-78
2022/05/12 21:54:04;;;;;;;12.02;6.47;;;;;;;7.35;72.71;100744.47;10457029;28;20496;-78
2022/05/12 22:04:30;;;;;;;10.40;5.75;;;;;;;6.51;74.22;100658.53;10456136;28;20071;-76
2022/05/12 22:09:34;;;;;;;12.32;7.07;;;;;;;8.08;74.18;100925.66;10456299;28;20045;-77
2022/05/12 22:14:36;;;;;;;13.88;6.05;;;;;;;8.10;74.30;100922.88;10456177;28;20124;-77
2022/05/12 22:19:38;;;;;;;14.38;6.35;;;;;;;7.30;73.66;100800.41;10455435;28;20060;-77
2022/05/12 22:24:39;;;;;;;14.77;6.15;;;;;;;7.96;74.05;100921.47;10455563;28;20098;-78
2022/05/12 22:29:42;;;;;;;19.15;6.15;;;;;;;7.37;73.62;100829.75;10456605;28;20041;-77
2022/05/12 22:34:42;;;;;;;8.15;5.20;;;;;;;7.65;73.92;100897.72;10454703;28;20512;-77
2022/05/12 22:39:44;;;;;;;10.32;5.97;;;;;;;6.96;74.25;100784.84;10455209;28;20067;-77
2022/05/12 22:44:45;;;;;;;11.45;6.00;;;;;;;7.29;74.79;100838.34;10454481;28;20463;-77
2022/05/12 22:49:46;;;;;;;9.70;5.43;;;;;;;7.66;74.83;100878.25;10454486;28;20037;-78
2022/05/12 22:54:47;;;;;;;12.63;5.97;;;;;;;7.92;74.94;100931.47;10454542;28;20083;-77
2022/05/12 22:59:48;;;;;;;10.07;5.28;;;;;;;6.15;75.00;100607.16;10454609;28;20056;-77
2022/05/12 23:04:48;;;;;;;10.93;5.72;;;;;;;6.74;74.86;100727.78;10454604;28;20067;-77
2022/05/12 23:09:49;;;;;;;8.63;4.97;;;;;;;7.83;74.82;100913.75;10454471;28;20052;-78
2022/05/12 23:14:50;;;;;;;10.73;4.95;;;;;;;7.95;75.04;100943.59;10453931;28;20174;-77
2022/05/12 23:25:11;;;;;;;10.85;5.03;;;;;;;7.74;75.27;100951.59;10453363;28;20067;-77
2022/05/12 23:30:12;;;;;;;9.65;5.25;;;;;;;7.73;75.43;100953.41;10454073;28;20079;-77
2022/05/12 23:35:13;;;;;;;9.55;4.47;;;;;;;6.46;75.21;100755.75;10454584;28;20044;-77
2022/05/12 23:40:16;;;;;;;20.15;5.68;;;;;;;7.49;75.28;100952.94;10452265;28;20029;-78
2022/05/12 23:45:18;;;;;;;10.98;4.50;;;;;;;7.40;75.99;100969.59;10453048;28;20051;-77
2022/05/12 23:50:18;;;;;;;10.32;5.90;;;;;;;7.12;75.76;100926.16;10453592;28;20053;-77
2022/05/12 23:55:19;;;;;;;10.35;4.90;;;;;;;5.93;75.48;100730.31;10453605;28;20084;-77
